Terminal Aerodrome Forecast
Issued by NWS

Home | Current Version | Previous Version | Text Only | Print | Product List | Glossary On
Versions: 1 2 3 4 5 6 7 8 9 10 11 12 13 14
000
FTUS41 KBTV 221136
TAFMPV
TAF
KMPV 221136Z 2212/2312 00000KT P6SM OVC030
     FM221600 14004KT P6SM OVC020
     FM230600 15005KT P6SM VCSH OVC015=

USA.gov is the U.S. government's official web portal to all federal, state and local government web resources and services.